Time;durP1;ratioP1;P1;durP2;ratioP2;P2;SDS_P1;SDS_P2;PMS_P1;PMS_P2;Temp;Humidity;BMP_temperature;BMP_pressure;BME280_temperature;BME280_humidity;BME280_pressure;Samples;Min_cycle;Max_cycle;Signal;HPM_P1;HPM_P2
2021/07/24 00:03:21;;;;;;;6.07;4.88;;;16.30;99.90;;;;;;12617622;28;20070;-41
2021/07/24 00:09:23;;;;;;;6.78;4.70;;;16.20;99.90;;;;;;12620712;28;20044;-40
2021/07/24 00:15:24;;;;;;;9.43;4.93;;;16.30;99.90;;;;;;12636556;28;20104;-40
2021/07/24 00:21:26;;;;;;;6.45;4.65;;;16.20;99.90;;;;;;12634972;28;20495;-41
2021/07/24 00:27:28;;;;;;;7.38;4.50;;;16.10;99.90;;;;;;12633886;28;20059;-40
2021/07/24 00:33:30;;;;;;;6.47;4.60;;;16.50;99.90;;;;;;12633023;28;20056;-40
2021/07/24 00:39:32;;;;;;;6.40;4.28;;;16.70;99.90;;;;;;12636553;28;20120;-40
2021/07/24 00:45:41;;;;;;;8.10;4.40;;;16.70;99.90;;;;;;12636046;28;20044;-40
2021/07/24 00:51:47;;;;;;;6.53;4.80;;;16.70;99.90;;;;;;12626606;28;20040;-40
2021/07/24 00:57:49;;;;;;;8.30;4.80;;;16.40;99.90;;;;;;12627841;28;20101;-41
2021/07/24 01:03:51;;;;;;;5.90;4.38;;;16.20;99.90;;;;;;12631590;28;20785;-40
2021/07/24 01:09:53;;;;;;;7.50;4.90;;;16.10;99.90;;;;;;12630257;28;20104;-40
2021/07/24 01:15:55;;;;;;;5.43;4.40;;;16.30;99.90;;;;;;12641346;28;20068;-41
2021/07/24 01:21:57;;;;;;;11.52;4.82;;;16.20;99.90;;;;;;12638465;27;20056;-40
2021/07/24 01:27:59;;;;;;;9.80;4.43;;;16.20;99.90;;;;;;12639857;28;20491;-41
2021/07/24 01:34:01;;;;;;;6.00;4.60;;;15.80;99.90;;;;;;12641118;28;20134;-40
2021/07/24 01:40:04;;;;;;;7.68;5.13;;;15.70;99.90;;;;;;12638013;28;20049;-40
2021/07/24 01:46:07;;;;;;;6.40;4.93;;;15.80;99.90;;;;;;12639062;28;20056;-41
2021/07/24 01:52:46;;;;;;;8.63;5.97;;;15.60;99.90;;;;;;12638947;28;20197;-40
2021/07/24 01:58:48;;;;;;;6.32;4.93;;;15.50;99.90;;;;;;12599784;28;20560;-40
2021/07/24 02:04:51;;;;;;;8.60;5.40;;;15.50;99.90;;;;;;12636096;28;20055;-41
2021/07/24 02:10:53;;;;;;;8.77;5.50;;;15.30;99.90;;;;;;12632899;28;20163;-41
2021/07/24 02:16:55;;;;;;;7.82;5.60;;;15.30;99.90;;;;;;12641242;28;20097;-40
2021/07/24 02:22:58;;;;;;;7.05;4.95;;;15.30;99.90;;;;;;12633265;28;20039;-40
2021/07/24 02:28:59;;;;;;;8.00;5.45;;;15.40;99.90;;;;;;12632387;28;20462;-40
2021/07/24 02:35:01;;;;;;;9.68;5.57;;;15.40;99.90;;;;;;12635403;28;20044;-40
2021/07/24 02:41:04;;;;;;;8.43;5.97;;;15.20;99.90;;;;;;12634092;28;20039;-40
2021/07/24 02:47:06;;;;;;;9.05;5.65;;;15.00;99.90;;;;;;12627440;28;20104;-40
2021/07/24 02:53:08;;;;;;;9.35;5.90;;;15.60;99.90;;;;;;12634299;27;20076;-41
2021/07/24 02:59:10;;;;;;;8.18;5.88;;;15.80;99.90;;;;;;12626535;28;20056;-39
2021/07/24 03:05:12;;;;;;;8.20;5.55;;;15.80;99.90;;;;;;12625533;28;20048;-40
2021/07/24 03:11:15;;;;;;;9.43;5.80;;;15.70;99.90;;;;;;12630270;28;20467;-40
2021/07/24 03:17:17;;;;;;;10.43;5.75;;;15.60;99.90;;;;;;12632532;28;20096;-40
2021/07/24 03:23:19;;;;;;;11.13;6.25;;;15.60;99.90;;;;;;12624749;28;20492;-40
2021/07/24 03:29:22;;;;;;;10.13;6.28;;;15.70;99.90;;;;;;12635057;28;20535;-40
2021/07/24 03:35:23;;;;;;;9.00;5.05;;;15.70;99.90;;;;;;12623354;28;20103;-39
2021/07/24 03:41:25;;;;;;;8.05;5.63;;;15.60;99.90;;;;;;12631057;28;20096;-41
2021/07/24 03:47:27;;;;;;;9.73;5.50;;;15.50;99.90;;;;;;12623508;28;20097;-40
2021/07/24 03:53:29;;;;;;;9.25;6.20;;;15.40;99.90;;;;;;12623484;28;20105;-41
2021/07/24 03:59:31;;;;;;;8.27;5.82;;;15.40;99.90;;;;;;12624226;28;20051;-41
2021/07/24 04:05:38;;;;;;;8.60;5.93;;;15.40;99.90;;;;;;12630090;28;20048;-41
2021/07/24 04:11:40;;;;;;;7.90;6.10;;;15.30;99.90;;;;;;12624600;28;20052;-41
2021/07/24 04:17:42;;;;;;;11.32;5.80;;;15.20;99.90;;;;;;12632053;28;20093;-41
2021/07/24 04:23:44;;;;;;;11.60;6.35;;;15.20;99.90;;;;;;12633517;28;20073;-40
2021/07/24 04:29:46;;;;;;;8.10;5.25;;;15.20;99.90;;;;;;12628526;28;20143;-42
2021/07/24 04:35:49;;;;;;;8.23;5.93;;;15.40;99.90;;;;;;12624192;28;20051;-40
2021/07/24 04:41:50;;;;;;;9.23;6.00;;;15.50;99.90;;;;;;12631974;28;20052;-40
2021/07/24 04:47:52;;;;;;;11.18;6.43;;;15.50;99.90;;;;;;12635482;28;20271;-42
2021/07/24 04:53:55;;;;;;;8.48;6.18;;;15.60;99.90;;;;;;12648528;28;20047;-42
2021/07/24 05:00:01;;;;;;;8.55;5.97;;;15.60;99.90;;;;;;12648698;28;20070;-41
2021/07/24 05:06:05;;;;;;;9.15;6.78;;;15.60;99.90;;;;;;12650830;28;20051;-40
2021/07/24 05:12:07;;;;;;;10.65;6.13;;;15.50;99.90;;;;;;12644251;28;20047;-40
2021/07/24 05:18:09;;;;;;;9.00;6.32;;;15.60;99.90;;;;;;12644393;28;20119;-41
2021/07/24 05:24:11;;;;;;;9.10;6.13;;;15.90;99.90;;;;;;12643551;28;20105;-39
2021/07/24 05:30:13;;;;;;;8.38;5.95;;;16.10;99.90;;;;;;12647560;28;20357;-41
2021/07/24 05:36:15;;;;;;;11.15;5.63;;;16.10;99.90;;;;;;12637687;28;20096;-40
2021/07/24 05:42:17;;;;;;;8.95;6.13;;;16.20;99.90;;;;;;12648901;28;20483;-40
2021/07/24 05:48:18;;;;;;;10.15;5.90;;;16.20;99.90;;;;;;12646799;28;20397;-40
2021/07/24 05:54:22;;;;;;;6.90;4.93;;;16.20;99.90;;;;;;12648552;28;20112;-41
2021/07/24 06:00:24;;;;;;;11.25;5.43;;;16.40;99.90;;;;;;12642603;28;20411;-41
2021/07/24 06:06:26;;;;;;;8.82;4.90;;;16.40;99.90;;;;;;12642476;28;20524;-42
2021/07/24 06:12:28;;;;;;;6.55;5.00;;;16.60;99.90;;;;;;12622718;28;20101;-41
2021/07/24 06:18:30;;;;;;;6.63;4.72;;;16.70;99.90;;;;;;12646144;28;20059;-40
2021/07/24 06:24:31;;;;;;;6.88;4.60;;;16.80;99.90;;;;;;12643513;27;20556;-40
2021/07/24 06:30:34;;;;;;;6.63;4.55;;;16.90;99.90;;;;;;12644729;28;20469;-45
2021/07/24 06:36:39;;;;;;;6.53;4.70;;;17.10;99.90;;;;;;12643541;28;20079;-41
2021/07/24 06:42:40;;;;;;;8.02;4.28;;;17.30;99.90;;;;;;12641281;28;20047;-41
2021/07/24 06:48:42;;;;;;;6.35;4.00;;;17.50;99.90;;;;;;12640305;28;20096;-40
2021/07/24 06:54:44;;;;;;;6.15;4.15;;;17.60;99.90;;;;;;12641436;28;20047;-41
2021/07/24 07:00:46;;;;;;;8.52;4.30;;;17.80;99.90;;;;;;12643364;28;20096;-40
2021/07/24 07:06:48;;;;;;;8.55;4.15;;;18.00;99.90;;;;;;12640095;28;20078;-41
2021/07/24 07:12:50;;;;;;;8.43;4.60;;;18.10;99.90;;;;;;12637149;28;20055;-40
2021/07/24 07:18:51;;;;;;;6.88;4.72;;;18.40;99.90;;;;;;12649197;28;20474;-41
2021/07/24 07:24:53;;;;;;;14.38;4.95;;;18.70;99.90;;;;;;12631302;28;20051;-41
2021/07/24 07:30:55;;;;;;;6.93;4.50;;;18.70;99.90;;;;;;12641888;28;20059;-40
2021/07/24 07:36:57;;;;;;;8.43;5.13;;;18.90;99.90;;;;;;12638753;28;20047;-41
2021/07/24 07:43:03;;;;;;;6.95;4.45;;;19.10;99.90;;;;;;12641953;27;20100;-41
2021/07/24 07:49:05;;;;;;;7.88;4.97;;;19.20;99.90;;;;;;12638191;28;20055;-40
2021/07/24 07:55:07;;;;;;;6.57;4.72;;;19.40;99.90;;;;;;12640351;28;20052;-43
2021/07/24 08:01:13;;;;;;;7.22;4.70;;;19.70;99.90;;;;;;12635136;28;20068;-40
2021/07/24 08:07:17;;;;;;;8.27;4.45;;;19.90;99.90;;;;;;12637432;28;20048;-41
2021/07/24 08:13:19;;;;;;;8.27;5.32;;;19.90;99.90;;;;;;12615900;28;20086;-41
2021/07/24 08:19:21;;;;;;;13.43;7.53;;;20.20;99.90;;;;;;12639737;28;20047;-40
2021/07/24 08:25:23;;;;;;;7.53;5.90;;;20.30;99.90;;;;;;12616934;28;20047;-41
2021/07/24 08:31:25;;;;;;;13.63;6.20;;;20.60;99.90;;;;;;12636388;28;20148;-40
2021/07/24 08:37:27;;;;;;;8.02;5.85;;;20.80;99.90;;;;;;12635566;28;20419;-40
2021/07/24 08:43:29;;;;;;;9.30;5.82;;;20.90;99.90;;;;;;12633773;28;20048;-42
2021/07/24 08:49:31;;;;;;;13.15;6.78;;;21.00;99.90;;;;;;12637243;28;20093;-41
2021/07/24 08:55:38;;;;;;;8.18;6.32;;;21.20;99.90;;;;;;12634745;28;20044;-41
2021/07/24 09:01:42;;;;;;;26.05;11.20;;;21.20;99.90;;;;;;12635274;28;20108;-45
2021/07/24 09:07:49;;;;;;;12.52;7.28;;;21.40;99.90;;;;;;12638106;28;20048;-42
2021/07/24 09:13:51;;;;;;;9.98;6.50;;;21.60;99.90;;;;;;12632527;28;20040;-40
2021/07/24 09:19:53;;;;;;;10.43;6.25;;;21.50;99.90;;;;;;12636001;28;20139;-43
2021/07/24 09:25:55;;;;;;;8.90;6.50;;;21.70;99.90;;;;;;12636470;28;20087;-42
2021/07/24 09:31:58;;;;;;;13.45;6.93;;;21.80;99.90;;;;;;12632922;28;20043;-42
2021/07/24 09:38:00;;;;;;;10.80;6.80;;;21.70;99.90;;;;;;12639444;28;20047;-40
2021/07/24 09:44:02;;;;;;;10.18;6.80;;;21.60;99.90;;;;;;12643627;28;20105;-42
2021/07/24 09:50:14;;;;;;;8.93;6.70;;;21.80;99.90;;;;;;12623300;28;20758;-40
2021/07/24 09:56:17;;;;;;;11.70;6.82;;;22.00;99.90;;;;;;12641120;28;20047;-41
2021/07/24 10:02:29;;;;;;;10.02;6.43;;;22.30;99.90;;;;;;12641080;27;20099;-41
2021/07/24 10:08:31;;;;;;;12.43;6.95;;;22.50;99.90;;;;;;12641067;28;20403;-41
2021/07/24 10:14:35;;;;;;;12.00;7.30;;;22.80;99.90;;;;;;12641805;28;20044;-40
2021/07/24 10:20:42;;;;;;;9.82;7.75;;;23.30;99.90;;;;;;12642877;28;20047;-44
2021/07/24 10:26:55;;;;;;;9.35;6.82;;;23.70;99.90;;;;;;12625357;28;20467;-41
2021/07/24 10:32:59;;;;;;;9.23;6.53;;;23.80;99.90;;;;;;12636109;28;20085;-40
2021/07/24 10:39:11;;;;;;;11.77;6.75;;;24.00;99.90;;;;;;12639237;28;20106;-43
2021/07/24 10:45:45;;;;;;;10.75;7.50;;;24.10;99.90;;;;;;12642190;28;20047;-40
2021/07/24 10:51:58;;;;;;;9.63;7.28;;;24.30;99.90;;;;;;12634816;28;20160;-42
2021/07/24 10:58:02;;;;;;;14.27;7.63;;;24.50;99.90;;;;;;12641783;28;20056;-44
2021/07/24 11:04:40;;;;;;;10.60;7.22;;;24.60;99.90;;;;;;12638377;28;20663;-44
2021/07/24 11:11:08;;;;;;;9.75;7.40;;;25.00;99.90;;;;;;12637246;28;20079;-41
2021/07/24 11:17:12;;;;;;;10.80;7.95;;;25.40;99.90;;;;;;12637393;28;20052;-44
2021/07/24 11:23:14;;;;;;;9.85;7.35;;;25.50;99.90;;;;;;12640481;28;20044;-41
2021/07/24 11:29:22;;;;;;;12.88;7.60;;;25.50;99.90;;;;;;12640800;28;20044;-41
2021/07/24 11:35:30;;;;;;;10.07;7.25;;;25.60;99.90;;;;;;12638595;27;20661;-41
2021/07/24 11:41:32;;;;;;;9.85;7.50;;;25.50;99.90;;;;;;12638219;27;20048;-41
2021/07/24 11:47:34;;;;;;;10.23;7.60;;;25.60;99.90;;;;;;12637159;28;20380;-43
2021/07/24 11:53:37;;;;;;;11.60;7.90;;;25.60;99.90;;;;;;12636382;28;20450;-40
2021/07/24 11:59:40;;;;;;;40.05;9.40;;;25.70;99.90;;;;;;12634380;28;20085;-41
2021/07/24 12:05:43;;;;;;;11.30;7.63;;;26.00;99.90;;;;;;12637628;28;20135;-41
2021/07/24 12:11:47;;;;;;;;;;;25.90;99.90;;;;;;12636202;28;20540;-41
2021/07/24 12:17:51;;;;;;;9.93;7.68;;;25.80;99.90;;;;;;12623227;28;20262;-41
2021/07/24 12:23:57;;;;;;;12.23;8.52;;;25.40;99.90;;;;;;12633456;28;20118;-43
2021/07/24 12:30:00;;;;;;;11.68;7.68;;;25.50;99.90;;;;;;12637012;28;20104;-40
2021/07/24 12:36:02;;;;;;;9.40;7.25;;;25.80;99.90;;;;;;12639027;28;20180;-41
2021/07/24 12:42:06;;;;;;;10.10;8.13;;;26.20;99.90;;;;;;12636333;28;20048;-40
2021/07/24 12:48:26;;;;;;;12.80;7.82;;;26.20;99.90;;;;;;12634600;28;20556;-41
2021/07/24 12:54:28;;;;;;;14.02;8.27;;;26.40;99.90;;;;;;12633831;28;20488;-41
2021/07/24 13:00:30;;;;;;;11.90;7.60;;;26.60;99.90;;;;;;12634082;28;20044;-42
2021/07/24 13:06:33;;;;;;;10.10;7.57;;;26.70;99.90;;;;;;12634245;28;20055;-40
2021/07/24 13:12:35;;;;;;;9.73;7.50;;;26.60;99.90;;;;;;12638974;28;20682;-41
2021/07/24 13:18:37;;;;;;;11.17;8.00;;;27.00;99.90;;;;;;12647496;28;20051;-41
2021/07/24 13:24:39;;;;;;;10.25;8.15;;;26.70;99.90;;;;;;12646078;28;20048;-41
2021/07/24 13:30:51;;;;;;;13.67;8.10;;;26.10;99.90;;;;;;12640600;28;20050;-40
2021/07/24 13:36:53;;;;;;;12.07;8.02;;;25.90;99.90;;;;;;12643269;28;20116;-40
2021/07/24 13:43:00;;;;;;;12.60;9.00;;;25.50;99.90;;;;;;12645544;28;20545;-41
2021/07/24 13:49:04;;;;;;;13.70;8.75;;;25.60;99.90;;;;;;12639527;28;20113;-40
2021/07/24 13:55:07;;;;;;;15.20;8.70;;;25.80;99.90;;;;;;12639057;28;20105;-41
2021/07/24 14:01:09;;;;;;;11.18;8.23;;;25.80;99.90;;;;;;12641826;28;20364;-41
2021/07/24 14:07:11;;;;;;;12.10;8.45;;;25.70;99.90;;;;;;12625719;28;20441;-41
2021/07/24 14:13:12;;;;;;;13.90;8.63;;;25.70;99.90;;;;;;12641365;28;20048;-41
2021/07/24 14:19:15;;;;;;;13.48;9.13;;;25.80;99.90;;;;;;12636835;28;20444;-40
2021/07/24 14:25:17;;;;;;;10.50;8.38;;;25.60;99.90;;;;;;12637662;27;20047;-41
2021/07/24 14:31:19;;;;;;;10.48;8.15;;;25.60;99.90;;;;;;12637149;28;20483;-41
2021/07/24 14:37:21;;;;;;;12.10;8.82;;;25.60;99.90;;;;;;12640153;28;20044;-40
2021/07/24 14:43:23;;;;;;;14.15;8.88;;;25.50;99.90;;;;;;12641770;28;20096;-41
2021/07/24 14:49:24;;;;;;;13.77;9.15;;;25.50;99.90;;;;;;12635212;28;20047;-42
2021/07/24 14:55:26;;;;;;;13.80;8.48;;;25.20;99.90;;;;;;12639477;28;20449;-40
2021/07/24 15:01:28;;;;;;;14.05;8.93;;;25.20;99.90;;;;;;12636719;28;20095;-41
2021/07/24 15:07:30;;;;;;;12.93;9.00;;;25.30;99.90;;;;;;12641065;28;20063;-41
2021/07/24 15:13:33;;;;;;;15.90;8.80;;;25.40;99.90;;;;;;12618209;28;20043;-42
2021/07/24 15:19:36;;;;;;;12.90;8.55;;;25.20;99.90;;;;;;12635166;28;20113;-40
2021/07/24 15:25:39;;;;;;;12.48;8.90;;;25.30;99.90;;;;;;12635690;28;20054;-40
2021/07/24 15:31:41;;;;;;;;;;;25.40;99.90;;;;;;12635386;28;20052;-41
2021/07/24 15:37:43;;;;;;;12.38;8.50;;;25.30;99.90;;;;;;12636909;28;19964;-41
2021/07/24 15:43:45;;;;;;;15.48;9.10;;;25.20;99.90;;;;;;12637990;28;20059;-41
2021/07/24 15:49:47;;;;;;;11.45;8.77;;;25.20;99.90;;;;;;12635089;28;20048;-41
2021/07/24 15:55:49;;;;;;;13.77;9.00;;;25.10;99.90;;;;;;12621756;28;20052;-41
2021/07/24 16:01:51;;;;;;;12.38;9.50;;;25.20;99.90;;;;;;12632344;28;20103;-40
2021/07/24 16:07:55;;;;;;;15.95;9.55;;;25.10;99.90;;;;;;12634817;28;20157;-40
2021/07/24 16:13:57;;;;;;;15.43;9.35;;;25.00;99.90;;;;;;12635203;28;20732;-40
2021/07/24 16:19:59;;;;;;;14.10;10.25;;;24.80;99.90;;;;;;12637773;28;20047;-40
2021/07/24 16:26:01;;;;;;;13.93;10.32;;;24.70;99.90;;;;;;12633731;28;20052;-40
2021/07/24 16:32:03;;;;;;;15.77;9.75;;;24.60;99.90;;;;;;12635204;28;20101;-41
2021/07/24 16:38:05;;;;;;;14.15;10.00;;;24.50;99.90;;;;;;12636949;28;20051;-40
2021/07/24 16:44:07;;;;;;;18.45;10.52;;;24.20;99.90;;;;;;12633892;28;20101;-41
2021/07/24 16:50:09;;;;;;;14.60;11.55;;;23.70;99.90;;;;;;12644660;28;20092;-40
2021/07/24 16:56:12;;;;;;;16.02;12.20;;;23.00;99.90;;;;;;12649923;28;20126;-41
2021/07/24 17:02:14;;;;;;;20.80;11.75;;;22.80;99.90;;;;;;12647424;28;20491;-41
2021/07/24 17:08:16;;;;;;;15.63;12.20;;;22.60;99.90;;;;;;12645815;28;20076;-41
2021/07/24 17:14:18;;;;;;;18.17;12.57;;;22.40;99.90;;;;;;12648206;28;20101;-40
2021/07/24 17:20:20;;;;;;;16.58;12.02;;;22.30;99.90;;;;;;12647664;27;20044;-41
2021/07/24 17:26:22;;;;;;;21.05;13.90;;;22.40;99.90;;;;;;12646371;28;20135;-40
2021/07/24 17:32:24;;;;;;;17.35;14.13;;;22.20;99.90;;;;;;12649456;28;20048;-41
2021/07/24 17:38:26;;;;;;;23.93;15.53;;;22.00;99.90;;;;;;12646166;28;20052;-41
2021/07/24 17:44:28;;;;;;;18.52;15.65;;;21.70;99.90;;;;;;12641217;28;20056;-41
2021/07/24 17:50:30;;;;;;;21.90;15.90;;;21.50;99.90;;;;;;12643282;28;20108;-40
2021/07/24 17:56:32;;;;;;;22.08;16.35;;;21.30;99.90;;;;;;12642211;28;20047;-41
2021/07/24 18:02:34;;;;;;;22.80;16.70;;;21.10;99.90;;;;;;12644141;28;20056;-40
2021/07/24 18:08:38;;;;;;;21.02;15.60;;;20.90;99.90;;;;;;12639919;28;20142;-40
2021/07/24 18:14:40;;;;;;;23.35;16.92;;;20.80;99.90;;;;;;12636924;28;20131;-43
2021/07/24 18:20:41;;;;;;;19.92;16.63;;;21.10;99.90;;;;;;12637194;28;20044;-40
2021/07/24 18:26:43;;;;;;;21.25;16.10;;;21.30;99.90;;;;;;12633800;28;20105;-42
2021/07/24 18:32:47;;;;;;;22.08;17.92;;;21.40;99.90;;;;;;12633201;28;20055;-41
2021/07/24 18:38:49;;;;;;;24.02;18.23;;;21.00;99.90;;;;;;12637149;28;20111;-41
2021/07/24 18:44:51;;;;;;;27.63;20.02;;;20.50;99.90;;;;;;12638362;28;20036;-41
2021/07/24 18:50:53;;;;;;;24.52;19.55;;;20.30;99.90;;;;;;12639348;28;20640;-40
2021/07/24 18:56:54;;;;;;;30.05;20.42;;;20.50;99.90;;;;;;12642960;28;20051;-40
2021/07/24 19:02:56;;;;;;;26.75;19.25;;;20.70;99.90;;;;;;12640871;28;20124;-41
2021/07/24 19:08:59;;;;;;;26.30;20.15;;;20.70;99.90;;;;;;12636070;28;20067;-41
2021/07/24 19:15:00;;;;;;;29.25;20.60;;;20.60;99.90;;;;;;12639594;28;20732;-40
2021/07/24 19:21:02;;;;;;;24.08;19.23;;;20.50;99.90;;;;;;12639188;28;20039;-40
2021/07/24 19:27:04;;;;;;;25.23;19.63;;;20.60;99.90;;;;;;12635087;28;20042;-41
2021/07/24 19:33:06;;;;;;;25.92;23.13;;;20.50;99.90;;;;;;12637078;28;20144;-40
2021/07/24 19:39:08;;;;;;;28.33;22.17;;;20.40;99.90;;;;;;12640319;28;20048;-40
2021/07/24 19:45:10;;;;;;;29.85;22.65;;;20.20;99.90;;;;;;12629425;28;20056;-41
2021/07/24 19:51:12;;;;;;;29.65;24.70;;;20.10;99.90;;;;;;12636922;28;20078;-41
2021/07/24 19:57:14;;;;;;;28.13;23.88;;;20.00;99.90;;;;;;12635962;28;20044;-40
2021/07/24 20:03:17;;;;;;;32.47;25.50;;;20.00;99.90;;;;;;12637581;28;20142;-42
2021/07/24 20:09:19;;;;;;;34.28;24.67;;;20.00;99.90;;;;;;12637234;28;20168;-41
2021/07/24 20:15:21;;;;;;;32.33;26.45;;;19.90;99.90;;;;;;12628632;28;20043;-41
2021/07/24 20:21:23;;;;;;;36.25;26.55;;;19.90;99.90;;;;;;12639521;28;20040;-40
2021/07/24 20:27:26;;;;;;;36.92;29.00;;;19.80;99.90;;;;;;12634245;28;20453;-40
2021/07/24 20:33:28;;;;;;;35.67;29.23;;;19.70;99.90;;;;;;12633604;28;20080;-41
2021/07/24 20:39:29;;;;;;;40.15;29.92;;;19.80;99.90;;;;;;12627192;28;20576;-40
2021/07/24 20:45:31;;;;;;;34.30;29.13;;;19.80;99.90;;;;;;12635817;28;20484;-41
2021/07/24 20:51:37;;;;;;;36.75;29.75;;;19.70;99.90;;;;;;12628783;28;20508;-40
2021/07/24 20:57:41;;;;;;;39.53;31.20;;;19.70;99.90;;;;;;12629995;28;20052;-40
2021/07/24 21:03:42;;;;;;;37.42;29.75;;;19.60;99.90;;;;;;12635473;28;20461;-40
2021/07/24 21:09:44;;;;;;;38.85;30.48;;;19.50;99.90;;;;;;12630999;28;20100;-42
2021/07/24 21:15:46;;;;;;;39.33;32.30;;;19.40;99.90;;;;;;12629468;28;20093;-40
2021/07/24 21:21:48;;;;;;;46.40;35.63;;;19.40;99.90;;;;;;12637879;28;20385;-40
2021/07/24 21:27:50;;;;;;;47.58;34.97;;;19.30;99.90;;;;;;12637266;28;20601;-40
2021/07/24 21:33:52;;;;;;;44.72;34.53;;;19.30;99.90;;;;;;12634347;28;20097;-42
2021/07/24 21:39:53;;;;;;;42.95;36.25;;;19.20;99.90;;;;;;12640975;28;20048;-40
2021/07/24 21:45:55;;;;;;;43.15;34.72;;;19.20;99.90;;;;;;12646730;28;20100;-42
2021/07/24 21:51:57;;;;;;;46.35;35.20;;;19.20;99.90;;;;;;12620974;28;20075;-40
2021/07/24 21:57:59;;;;;;;41.45;33.95;;;19.20;99.90;;;;;;12642938;28;20527;-40
2021/07/24 22:04:00;;;;;;;46.13;35.03;;;19.20;99.90;;;;;;12641466;28;20048;-40
2021/07/24 22:10:03;;;;;;;44.40;34.03;;;19.20;99.90;;;;;;12630069;28;20718;-42
2021/07/24 22:16:05;;;;;;;46.15;35.63;;;19.10;99.90;;;;;;12640208;28;20047;-41
2021/07/24 22:22:08;;;;;;;41.97;34.47;;;19.10;99.90;;;;;;12645679;28;20491;-40
2021/07/24 22:28:10;;;;;;;44.53;34.23;;;19.10;99.90;;;;;;12635621;28;20048;-41
2021/07/24 22:34:12;;;;;;;47.28;35.25;;;19.10;99.90;;;;;;12644448;28;20051;-40
2021/07/24 22:40:14;;;;;;;52.78;38.28;;;19.00;99.90;;;;;;12626544;28;20448;-40
2021/07/24 22:46:16;;;;;;;58.83;40.95;;;19.00;99.90;;;;;;12639057;28;20052;-40
2021/07/24 22:52:18;;;;;;;71.10;47.28;;;18.90;99.90;;;;;;12640932;28;20089;-40
2021/07/24 22:58:20;;;;;;;68.63;46.35;;;18.90;99.90;;;;;;12636905;28;20769;-41
2021/07/24 23:04:22;;;;;;;62.63;45.55;;;18.80;99.90;;;;;;12638702;28;20040;-40
2021/07/24 23:10:24;;;;;;;65.90;48.03;;;18.80;99.90;;;;;;12635880;28;20058;-40
2021/07/24 23:16:25;;;;;;;65.20;45.78;;;18.80;99.90;;;;;;12639432;28;20112;-41
2021/07/24 23:22:28;;;;;;;59.63;43.43;;;18.80;99.90;;;;;;12638328;28;20063;-41
2021/07/24 23:28:30;;;;;;;61.85;44.20;;;18.80;99.90;;;;;;12617297;28;20157;-41
2021/07/24 23:34:32;;;;;;;58.35;43.65;;;18.70;99.90;;;;;;12634216;28;20517;-41
2021/07/24 23:40:34;;;;;;;62.20;42.63;;;18.70;99.90;;;;;;12630490;28;20048;-40
2021/07/24 23:46:36;;;;;;;60.10;42.38;;;18.70;99.90;;;;;;12634402;28;20143;-40
2021/07/24 23:52:38;;;;;;;62.00;43.53;;;18.60;99.90;;;;;;12637809;28;20069;-41
2021/07/24 23:58:39;;;;;;;60.90;42.53;;;18.60;99.90;;;;;;12633000;28;20444;-41
